Time;durP1;ratioP1;P1;durP2;ratioP2;P2;SDS_P1;SDS_P2;PMS_P1;PMS_P2;Temp;Humidity;BMP_temperature;BMP_pressure;BME280_temperature;BME280_humidity;BME280_pressure;Samples;Min_cycle;Max_cycle;Signal;HPM_P1;HPM_P2
2022/08/12 00:43:42;;;;;;;4.55;3.45;;;;;;;14.03;100.00;101551.84;4878041;29;20079;-77
2022/08/12 00:46:42;;;;;;;8.75;3.65;;;;;;;13.98;100.00;101552.84;4876027;29;20054;-77
2022/08/12 00:49:03;;;;;;;3.83;3.08;;;;;;;13.92;100.00;101555.63;4876555;29;20052;-78
2022/08/12 00:54:17;;;;;;;5.53;3.75;;;;;;;13.86;100.00;101555.75;4862003;29;20055;-78
2022/08/12 00:56:47;;;;;;;5.22;3.28;;;;;;;13.79;100.00;101547.91;4861772;29;20095;-78
2022/08/12 00:59:15;;;;;;;5.03;3.72;;;;;;;13.78;100.00;101555.88;4863653;29;20048;-78
2022/08/12 01:01:46;;;;;;;3.63;3.20;;;;;;;13.76;100.00;101553.25;4890693;29;20132;-78
2022/08/12 01:13:00;;;;;;;5.13;3.88;;;;;;;13.58;100.00;101536.81;4875041;29;20060;-78
2022/08/12 01:15:46;;;;;;;4.57;3.08;;;;;;;13.51;100.00;101531.59;4864544;29;20135;-77
2022/08/12 01:18:13;;;;;;;4.43;3.65;;;;;;;13.50;100.00;101537.81;4863156;29;20509;-77
2022/08/12 01:20:52;;;;;;;5.45;3.58;;;;;;;13.46;100.00;101544.13;4873961;29;20120;-78
2022/08/12 01:23:44;;;;;;;5.45;3.65;;;;;;;13.44;100.00;101540.59;4870645;29;20100;-77
2022/08/12 01:26:18;;;;;;;5.80;3.95;;;;;;;13.40;100.00;101544.22;4850767;29;20049;-77
2022/08/12 01:28:47;;;;;;;6.53;3.90;;;;;;;13.35;100.00;101538.09;4892065;29;20043;-77
2022/08/12 01:31:17;;;;;;;5.72;3.95;;;;;;;13.30;100.00;101545.28;4892834;29;20155;-78
2022/08/12 01:34:10;;;;;;;5.65;3.92;;;;;;;13.27;100.00;101533.84;4889739;29;20045;-78
2022/08/12 01:36:58;;;;;;;5.03;3.70;;;;;;;13.21;100.00;101540.16;4892149;29;20092;-77
2022/08/12 01:39:29;;;;;;;6.45;3.88;;;;;;;13.16;100.00;101541.94;4894050;23;20080;-76
2022/08/12 01:42:06;;;;;;;5.22;4.00;;;;;;;13.13;100.00;101536.72;4856157;29;20072;-77
2022/08/12 01:44:33;;;;;;;5.57;3.78;;;;;;;13.12;100.00;101537.63;4875827;29;20052;-78
2022/08/12 01:47:21;;;;;;;5.35;4.05;;;;;;;13.08;100.00;101544.72;4875576;29;20406;-77
2022/08/12 01:50:35;;;;;;;5.57;3.75;;;;;;;13.03;100.00;101538.66;4859365;29;20045;-77
2022/08/12 01:53:07;;;;;;;5.05;3.58;;;;;;;13.02;100.00;101543.94;4852696;29;20061;-77
2022/08/12 01:55:37;;;;;;;4.00;3.55;;;;;;;13.00;100.00;101543.09;4851005;29;20053;-77
2022/08/12 01:58:27;;;;;;;4.47;3.60;;;;;;;12.98;100.00;101544.91;4875733;29;20060;-78
2022/08/12 02:01:00;;;;;;;4.18;3.50;;;;;;;12.88;100.00;101545.06;4857142;29;20046;-77
2022/08/12 02:13:20;;;;;;;23.00;7.47;;;;;;;12.83;100.00;101538.06;4868096;29;20479;-79
2022/08/12 02:16:29;;;;;;;19.52;6.18;;;;;;;12.71;100.00;101541.81;4863916;29;20068;-78
2022/08/12 02:19:27;;;;;;;17.52;5.82;;;;;;;12.62;100.00;101549.91;4846843;29;20056;-79
2022/08/12 02:22:20;;;;;;;27.33;7.70;;;;;;;12.61;100.00;101551.69;4863521;29;20111;-79
2022/08/12 02:24:49;;;;;;;20.88;6.70;;;;;;;12.62;100.00;101552.56;4864908;29;20056;-80
2022/08/12 02:27:18;;;;;;;14.85;5.68;;;;;;;12.58;100.00;101550.81;4836246;29;20052;-78
2022/08/12 02:29:44;;;;;;;12.68;6.03;;;;;;;12.56;100.00;101548.19;4859943;29;20045;-78
2022/08/12 02:32:12;;;;;;;10.60;5.32;;;;;;;12.60;100.00;101546.38;4847511;29;20064;-79
2022/08/12 02:34:39;;;;;;;11.05;5.05;;;;;;;12.54;100.00;101543.84;4876625;29;20041;-78
2022/08/12 02:37:07;;;;;;;7.43;4.13;;;;;;;12.47;100.00;101544.81;4877321;29;20070;-79
2022/08/12 02:39:36;;;;;;;9.98;5.10;;;;;;;12.44;100.00;101539.53;4873810;29;20049;-78
2022/08/12 02:42:04;;;;;;;9.27;5.18;;;;;;;12.43;100.00;101540.44;4851430;29;20052;-79
2022/08/12 02:44:35;;;;;;;6.60;3.85;;;;;;;12.38;100.00;101541.41;4851329;29;20052;-78
2022/08/12 02:47:05;;;;;;;6.13;3.92;;;;;;;12.32;100.00;101541.47;4864167;29;21703;-79
2022/08/12 02:49:34;;;;;;;8.23;5.03;;;;;;;12.38;100.00;101538.75;4871940;29;20088;-79
2022/08/12 02:52:01;;;;;;;6.50;4.40;;;;;;;12.32;100.00;101541.47;4863976;29;20049;-78
2022/08/12 02:54:28;;;;;;;5.88;4.55;;;;;;;12.27;100.00;101548.59;4878747;29;20105;-79
2022/08/12 02:56:55;;;;;;;6.50;4.10;;;;;;;12.26;100.00;101545.97;4877598;29;20725;-78
2022/08/12 02:59:23;;;;;;;7.22;4.20;;;;;;;12.20;100.00;101544.28;4875229;29;20065;-78
2022/08/12 03:01:52;;;;;;;5.97;3.92;;;;;;;12.22;100.00;101545.16;4859534;29;20410;-78
2022/08/12 03:04:25;;;;;;;5.15;3.88;;;;;;;12.19;100.00;101539.00;4851709;29;20651;-79
2022/08/12 03:07:00;;;;;;;4.65;3.63;;;;;;;12.21;100.00;101543.41;4862195;29;20072;-79
2022/08/12 03:09:28;;;;;;;5.43;4.18;;;;;;;12.13;100.00;101545.25;4852059;29;20448;-79
2022/08/12 03:12:16;;;;;;;5.35;3.83;;;;;;;12.07;100.00;101551.50;4866434;29;20045;-79
2022/08/12 03:14:45;;;;;;;5.55;4.25;;;;;;;12.02;100.00;101542.75;4842373;29;20472;-78
2022/08/12 03:17:24;;;;;;;5.50;4.00;;;;;;;11.99;100.00;101542.78;4858952;29;20072;-79
2022/08/12 03:19:53;;;;;;;6.97;3.95;;;;;;;11.98;100.00;101550.75;4865512;29;20041;-79
2022/08/12 03:22:41;;;;;;;5.53;4.70;;;;;;;11.96;100.00;101548.13;4860117;29;20037;-79
2022/08/12 03:25:13;;;;;;;5.00;4.30;;;;;;;11.94;100.00;101541.06;4876133;29;20459;-78
2022/08/12 03:27:50;;;;;;;4.30;3.85;;;;;;;11.91;100.00;101549.94;4875093;29;20045;-79
2022/08/12 03:30:18;;;;;;;5.13;4.13;;;;;;;11.89;100.00;101551.72;4863268;29;20136;-79
2022/08/12 03:32:49;;;;;;;6.28;4.20;;;;;;;11.87;100.00;101552.66;4833152;29;20045;-78
2022/08/12 03:35:23;;;;;;;8.13;4.95;;;;;;;11.85;100.00;101560.59;4853722;29;20057;-79
2022/08/12 03:38:10;;;;;;;5.05;3.75;;;;;;;11.82;100.00;101550.91;4848310;29;20043;-78
2022/08/12 04:00:29;;;;;;;6.43;4.30;;;;;;;11.75;100.00;101562.44;4872337;29;20043;-79
2022/08/12 04:03:01;;;;;;;6.38;4.50;;;;;;;11.72;100.00;101562.47;4868791;29;20044;-79
2022/08/12 04:05:30;;;;;;;6.18;4.53;;;;;;;11.68;100.00;101555.44;4887281;29;20041;-78
2022/08/12 04:08:17;;;;;;;4.82;3.88;;;;;;;11.68;100.00;101557.22;4864560;29;20093;-79
2022/08/12 04:13:29;;;;;;;6.07;4.40;;;;;;;11.71;100.00;101560.72;4847366;29;20522;-78
2022/08/12 04:15:57;;;;;;;4.95;4.38;;;;;;;11.69;100.00;101566.94;4862392;29;20451;-79
2022/08/12 04:18:24;;;;;;;4.95;4.18;;;;;;;11.75;100.00;101564.19;4869678;29;20047;-78
2022/08/12 04:20:51;;;;;;;6.45;4.50;;;;;;;11.74;100.00;101568.63;4879314;29;20041;-79
2022/08/12 04:23:18;;;;;;;5.50;4.40;;;;;;;11.72;100.00;101558.97;4878314;29;20052;-78
2022/08/12 04:25:45;;;;;;;5.13;4.40;;;;;;;11.72;100.00;101557.19;4831903;29;20063;-79
2022/08/12 04:28:11;;;;;;;5.65;4.07;;;;;;;11.73;100.00;101566.88;4875954;29;20041;-78
2022/08/12 04:30:39;;;;;;;5.68;4.32;;;;;;;11.78;100.00;101559.78;4864791;29;20115;-79
2022/08/12 04:33:24;;;;;;;6.32;4.40;;;;;;;11.81;100.00;101562.41;4859278;29;20057;-79
2022/08/12 04:35:50;;;;;;;6.25;3.78;;;;;;;11.82;100.00;101558.00;4876814;29;20037;-79
2022/08/12 04:38:18;;;;;;;6.75;4.30;;;;;;;11.87;100.00;101560.59;4859307;29;20078;-79
2022/08/12 04:40:45;;;;;;;4.88;4.10;;;;;;;11.86;100.00;101566.78;4844771;29;20104;-78
2022/08/12 04:43:12;;;;;;;6.60;4.65;;;;;;;11.89;100.00;101558.81;4863779;29;20055;-79
2022/08/12 04:46:01;;;;;;;6.40;4.05;;;;;;;11.93;100.00;101568.44;4872616;29;20048;-79
2022/08/12 04:48:28;;;;;;;5.32;4.55;;;;;;;11.98;100.00;101566.63;4847309;29;20040;-78
2022/08/12 04:50:56;;;;;;;5.88;4.70;;;;;;;12.01;100.00;101559.50;4854837;29;20084;-77
2022/08/12 04:53:23;;;;;;;5.45;4.30;;;;;;;12.12;100.00;101567.34;4860086;29;20050;-78
2022/08/12 04:55:51;;;;;;;5.80;4.25;;;;;;;12.13;100.00;101566.47;4846696;29;20049;-78
2022/08/12 04:58:17;;;;;;;4.22;3.78;;;;;;;12.18;100.00;101561.97;4884023;29;20045;-78
2022/08/12 05:00:55;;;;;;;5.00;4.50;;;;;;;12.21;100.00;101561.06;4864758;29;20064;-78
2022/08/12 05:03:24;;;;;;;5.78;3.97;;;;;;;12.23;100.00;101564.56;4858674;29;20044;-80
2022/08/12 05:05:51;;;;;;;5.75;4.65;;;;;;;12.26;100.00;101564.50;4840450;29;20041;-79
2022/08/12 05:08:18;;;;;;;4.78;4.28;;;;;;;12.32;100.00;101570.63;4842016;29;20053;-79
2022/08/12 05:10:46;;;;;;;4.75;4.13;;;;;;;12.42;100.00;101568.72;4825065;29;20125;-79
2022/08/12 05:13:16;;;;;;;5.18;4.05;;;;;;;12.55;100.00;101567.66;4873440;29;20161;-79
2022/08/12 05:15:44;;;;;;;5.60;4.05;;;;;;;12.61;100.00;101564.94;4859528;29;20132;-79
2022/08/12 05:18:36;;;;;;;5.32;4.30;;;;;;;12.70;100.00;101563.91;4847048;29;20041;-78
2022/08/12 05:21:06;;;;;;;;;;;;;;;12.68;100.00;101560.38;4859872;29;20045;-79
2022/08/12 05:23:35;;;;;;;7.88;4.10;;;;;;;12.72;100.00;101559.47;4844308;29;19928;-78
2022/08/12 05:26:03;;;;;;;5.22;4.28;;;;;;;12.73;100.00;101561.22;4843360;29;20049;-79
2022/08/12 05:28:30;;;;;;;5.50;4.15;;;;;;;12.75;100.00;101562.06;4874792;29;20128;-79
2022/08/12 05:31:00;;;;;;;5.05;4.40;;;;;;;12.82;100.00;101573.44;4843694;29;20053;-78
2022/08/12 05:33:36;;;;;;;4.72;4.22;;;;;;;12.94;100.00;101576.78;4875186;29;20049;-79
2022/08/12 05:36:06;;;;;;;7.65;4.88;;;;;;;13.17;100.00;101568.47;4871504;29;20061;-78
2022/08/12 05:41:19;;;;;;;5.75;4.82;;;;;;;13.31;100.00;101572.69;4877351;29;20543;-79
2022/08/12 05:43:55;;;;;;;6.55;4.50;;;;;;;13.39;100.00;101569.00;4861929;29;21458;-79
2022/08/12 05:46:23;;;;;;;5.70;4.10;;;;;;;13.45;100.00;101576.88;4872878;29;20049;-78
2022/08/12 05:48:53;;;;;;;6.43;4.43;;;;;;;13.59;100.00;101567.78;4861679;29;20681;-80
2022/08/12 05:51:23;;;;;;;5.32;4.20;;;;;;;13.75;100.00;101569.22;4877141;29;20037;-79
2022/08/12 05:53:55;;;;;;;5.30;4.40;;;;;;;13.96;100.00;101568.84;4833247;29;20055;-78
2022/08/12 05:56:25;;;;;;;6.55;4.22;;;;;;;14.15;100.00;101573.75;4859561;29;20048;-79
2022/08/12 05:58:53;;;;;;;5.82;4.40;;;;;;;14.80;100.00;101574.13;4862403;29;20069;-79
2022/08/12 06:01:21;;;;;;;8.65;3.72;;;;;;;16.88;100.00;101572.81;4869477;29;20056;-79
2022/08/12 06:04:08;;;;;;;5.28;3.65;;;;;;;18.37;83.55;101568.50;4885388;29;20052;-80
2022/08/12 06:06:37;;;;;;;5.32;4.10;;;;;;;18.23;82.99;101571.69;4877650;29;20049;-79
2022/08/12 06:09:05;;;;;;;57.30;11.80;;;;;;;18.17;84.59;101571.94;4877366;29;20037;-80
2022/08/12 06:11:31;;;;;;;176.70;31.00;;;;;;;17.72;85.41;101575.34;4862960;29;20048;-80
2022/08/12 06:13:58;;;;;;;81.60;17.50;;;;;;;17.58;88.37;101576.75;4878662;29;20049;-80
2022/08/12 06:16:26;;;;;;;64.50;14.60;;;;;;;17.61;88.62;101581.97;4851688;29;20053;-80
2022/08/12 06:18:53;;;;;;;88.50;18.08;;;;;;;17.89;87.12;101568.53;4877898;29;20084;-81
2022/08/12 06:21:20;;;;;;;120.80;22.30;;;;;;;18.00;86.82;101579.72;4862220;29;20067;-79
2022/08/12 06:23:47;;;;;;;76.05;16.15;;;;;;;18.81;83.05;101579.28;4861685;29;20395;-79
2022/08/12 06:26:17;;;;;;;245.57;37.80;;;;;;;19.76;76.47;101581.59;4845271;29;20037;-80
2022/08/12 06:28:49;;;;;;;134.88;26.95;;;;;;;20.38;72.60;101579.66;4829529;29;20072;-80
2022/08/12 06:31:17;;;;;;;27.48;7.22;;;;;;;20.68;70.91;101575.56;4866405;29;20060;-80
2022/08/12 06:33:54;;;;;;;13.23;5.32;;;;;;;21.18;69.19;101577.56;4861720;29;20519;-79
2022/08/12 06:36:40;;;;;;;20.15;6.00;;;;;;;21.88;66.44;101573.97;4837846;29;20052;-79
2022/08/12 06:39:12;;;;;;;15.13;4.20;;;;;;;22.83;62.17;101568.75;4861557;29;20045;-79
2022/08/12 06:44:49;;;;;;;4.78;3.13;;;;;;;24.60;53.21;101576.88;4896064;29;20655;-80
2022/08/12 06:47:17;;;;;;;8.52;3.40;;;;;;;25.00;53.74;101574.28;4896903;29;20044;-79
2022/08/12 06:49:44;;;;;;;5.05;3.40;;;;;;;25.02;52.59;101569.63;4864498;29;20037;-79
2022/08/12 06:52:10;;;;;;;5.82;3.22;;;;;;;24.87;51.47;101568.81;4859541;29;20041;-80
2022/08/12 06:54:37;;;;;;;3.83;3.40;;;;;;;24.78;52.74;101576.66;4858276;29;20045;-80
2022/08/12 06:57:04;;;;;;;4.05;3.00;;;;;;;24.81;54.32;101585.44;4851437;29;20060;-78
2022/08/12 06:59:50;;;;;;;4.45;2.63;;;;;;;25.15;51.61;101581.41;4862263;29;20037;-79
2022/08/12 07:02:19;;;;;;;4.47;3.45;;;;;;;25.22;51.91;101571.91;4861441;29;20056;-78
2022/08/12 07:04:46;;;;;;;3.33;3.00;;;;;;;25.70;47.68;101564.09;4876474;29;20073;-80
2022/08/12 07:07:13;;;;;;;3.13;2.53;;;;;;;26.17;47.32;101567.16;4862370;29;20144;-80
2022/08/12 07:09:41;;;;;;;3.08;2.78;;;;;;;26.73;41.68;101559.47;4876208;29;20041;-79
2022/08/12 07:12:28;;;;;;;4.47;2.80;;;;;;;26.87;43.48;101562.91;4874245;29;20049;-81
2022/08/12 07:15:00;;;;;;;4.15;3.40;;;;;;;26.98;44.50;101562.06;4860614;29;20109;-79
2022/08/12 07:17:34;;;;;;;21.17;4.68;;;;;;;27.17;42.22;101561.63;4877554;29;20054;-80
2022/08/12 07:20:04;;;;;;;4.18;2.45;;;;;;;27.25;37.84;101559.19;4846187;29;20045;-80
2022/08/12 07:22:31;;;;;;;3.15;2.58;;;;;;;27.40;41.04;101559.81;4860834;29;20037;-80
2022/08/12 07:27:45;;;;;;;6.13;2.95;;;;;;;27.89;39.69;101562.31;4847534;29;20060;-80
2022/08/12 07:30:13;;;;;;;2.50;2.17;;;;;;;28.15;39.06;101562.09;4876319;29;20033;-79
2022/08/12 07:32:39;;;;;;;18.23;4.00;;;;;;;28.14;37.94;101571.25;4861089;29;20067;-79
2022/08/12 07:35:07;;;;;;;11.70;3.63;;;;;;;28.24;35.90;101566.78;4875450;29;20049;-79
2022/08/12 07:37:39;;;;;;;5.75;2.70;;;;;;;28.30;33.93;101558.19;4876890;29;20045;-80
2022/08/12 07:40:10;;;;;;;5.32;2.90;;;;;;;28.48;34.57;101558.53;4939709;23;20123;-77
2022/08/12 07:42:38;;;;;;;2.92;2.30;;;;;;;28.65;33.17;101559.88;4879364;29;20083;-77
2022/08/12 07:45:06;;;;;;;4.03;2.30;;;;;;;28.66;33.54;101559.75;4862809;29;20529;-77
2022/08/12 07:47:33;;;;;;;3.10;1.90;;;;;;;28.85;32.97;101559.09;4895904;29;20044;-77
2022/08/12 07:50:01;;;;;;;4.20;2.13;;;;;;;29.23;32.40;101557.75;4881580;29;20041;-77
2022/08/12 07:52:34;;;;;;;4.95;2.63;;;;;;;29.69;30.29;101558.28;4894365;29;20100;-77
2022/08/12 07:55:02;;;;;;;5.40;2.22;;;;;;;29.61;31.21;101555.38;4892198;29;20040;-78
2022/08/12 07:57:31;;;;;;;4.50;1.90;;;;;;;29.89;31.16;101555.66;4878728;29;20395;-78
2022/08/12 08:00:05;;;;;;;2.33;2.00;;;;;;;30.00;29.90;101559.16;4866167;29;20052;-78
2022/08/12 08:02:32;;;;;;;3.03;1.88;;;;;;;30.09;28.96;101557.53;4894847;29;20047;-78
2022/08/12 08:04:59;;;;;;;3.95;1.90;;;;;;;30.12;29.90;101550.97;4894814;29;20111;-77
2022/08/12 08:07:28;;;;;;;2.78;2.00;;;;;;;30.08;28.87;101547.63;4894165;29;20055;-78
2022/08/12 08:10:00;;;;;;;2.33;1.92;;;;;;;30.24;29.92;101545.25;4878131;29;20041;-78
2022/08/12 08:15:14;;;;;;;2.33;1.80;;;;;;;29.84;29.21;101552.47;4877999;29;20052;-78
2022/08/12 08:17:58;;;;;;;2.95;1.75;;;;;;;29.43;28.92;101548.75;4860567;29;20435;-77
2022/08/12 08:20:29;;;;;;;2.55;2.13;;;;;;;29.44;29.81;101556.78;4876908;29;20047;-77
2022/08/12 08:22:57;;;;;;;4.72;1.77;;;;;;;29.34;28.53;101554.97;4863813;29;20041;-78
2022/08/12 08:25:31;;;;;;;4.78;1.90;;;;;;;29.43;29.22;101548.75;4874672;29;20053;-78
2022/08/12 08:28:18;;;;;;;3.08;1.90;;;;;;;29.70;28.38;101551.84;4892714;29;20041;-77
2022/08/12 08:30:46;;;;;;;2.53;1.70;;;;;;;29.94;27.08;101547.97;4871342;29;20045;-77
2022/08/12 08:33:16;;;;;;;4.55;1.85;;;;;;;29.91;28.50;101556.41;4877236;29;20602;-77
2022/08/12 08:36:04;;;;;;;3.88;2.05;;;;;;;29.85;27.63;101548.75;4894666;29;20041;-77
2022/08/12 08:38:31;;;;;;;3.42;1.80;;;;;;;29.77;28.25;101554.03;4878516;29;20052;-78
2022/08/12 08:44:09;;;;;;;7.57;2.25;;;;;;;29.24;28.82;101545.88;4955741;23;20178;-77
2022/08/12 08:46:37;;;;;;;4.15;1.83;;;;;;;29.45;28.32;101544.03;4901734;29;20095;-80
2022/08/12 08:49:05;;;;;;;2.65;1.60;;;;;;;29.61;27.89;101533.59;4968781;23;20056;-79
2022/08/12 08:51:31;;;;;;;3.65;2.17;;;;;;;29.54;28.29;101545.13;4886717;29;20051;-78
2022/08/12 08:53:58;;;;;;;2.58;1.67;;;;;;;29.61;27.41;101538.16;4899979;29;20040;-78
2022/08/12 08:56:27;;;;;;;2.55;1.80;;;;;;;29.85;26.96;101541.47;4907914;29;20087;-78
2022/08/12 08:58:55;;;;;;;7.78;2.55;;;;;;;29.79;27.05;101539.28;4926627;29;20050;-77
2022/08/12 09:01:22;;;;;;;9.85;2.88;;;;;;;29.86;26.45;101540.47;4922739;29;20040;-78
2022/08/12 09:03:50;;;;;;;5.45;2.05;;;;;;;29.63;26.51;101539.75;4910216;29;20054;-77
2022/08/12 09:06:40;;;;;;;4.97;1.92;;;;;;;29.95;26.32;101545.09;4928547;29;20047;-77
2022/08/12 09:09:27;;;;;;;2.80;1.65;;;;;;;30.02;26.57;101542.72;4910787;29;20072;-78
2022/08/12 09:15:20;;;;;;;2.00;1.60;;;;;;;30.21;25.85;101545.53;4906589;29;20040;-78
2022/08/12 09:17:54;;;;;;;2.90;1.70;;;;;;;30.32;25.98;101541.84;4923763;29;20044;-78
2022/08/12 09:20:31;;;;;;;3.03;2.00;;;;;;;30.71;25.63;101539.25;4923182;29;20059;-78
2022/08/12 09:23:00;;;;;;;3.00;1.80;;;;;;;31.04;24.97;101544.34;4892468;29;20043;-78
2022/08/12 09:25:34;;;;;;;65.82;10.48;;;;;;;31.07;25.23;101538.56;4907388;29;20048;-77
2022/08/12 09:28:01;;;;;;;3.53;1.80;;;;;;;31.31;24.53;101532.72;4892282;29;20048;-78
2022/08/12 09:30:31;;;;;;;28.15;5.68;;;;;;;31.60;24.39;101548.19;4890728;29;20040;-77
2022/08/12 09:33:08;;;;;;;3.58;2.05;;;;;;;30.96;24.35;101543.31;4910521;29;20050;-77
2022/08/12 09:35:56;;;;;;;5.57;2.20;;;;;;;31.30;24.23;101541.06;4919779;29;20044;-79
2022/08/12 09:38:32;;;;;;;4.22;2.03;;;;;;;30.62;24.48;101535.47;4921765;29;20036;-78
2022/08/12 09:41:02;;;;;;;2.22;1.73;;;;;;;31.06;24.52;101538.72;4891865;29;20040;-78
2022/08/12 09:46:55;;;;;;;2.75;1.95;;;;;;;31.52;23.83;101526.22;4897141;29;20048;-78
2022/08/12 09:49:23;;;;;;;6.13;2.33;;;;;;;30.70;24.21;101532.94;4903109;29;20037;-78
2022/08/12 09:51:53;;;;;;;40.83;7.05;;;;;;;30.54;24.13;101525.28;4908436;29;20044;-78
2022/08/12 09:54:24;;;;;;;4.82;2.20;;;;;;;31.16;23.86;101525.94;4892120;29;20644;-79
2022/08/12 09:57:06;;;;;;;3.55;2.03;;;;;;;31.28;24.27;101515.78;4910421;29;20051;-78
2022/08/12 09:59:55;;;;;;;3.45;2.17;;;;;;;31.46;23.96;101513.16;4887162;29;20463;-79
2022/08/12 10:03:02;;;;;;;6.70;2.20;;;;;;;30.95;23.72;101517.91;4889020;29;20043;-78
2022/08/12 10:05:35;;;;;;;4.97;2.03;;;;;;;30.88;23.58;101502.25;4886035;29;20044;-77
2022/08/12 10:08:26;;;;;;;2.28;1.70;;;;;;;31.24;23.55;101507.00;4907174;29;20047;-78
2022/08/12 10:13:47;;;;;;;3.70;1.70;;;;;;;32.17;22.28;101502.59;4909362;29;21078;-78
2022/08/12 10:16:16;;;;;;;4.25;1.65;;;;;;;32.60;21.84;101498.34;4924122;29;20047;-78
2022/08/12 10:18:56;;;;;;;2.80;1.90;;;;;;;32.76;22.26;101490.31;4892132;29;20052;-79
2022/08/12 10:21:26;;;;;;;4.30;1.92;;;;;;;32.37;22.03;101493.31;4906950;29;20048;-78
2022/08/12 10:24:06;;;;;;;2.75;1.63;;;;;;;31.44;21.16;101487.84;4906370;29;20056;-78
2022/08/12 10:29:38;;;;;;;7.45;2.33;;;;;;;31.89;21.27;101497.09;4890668;29;20040;-77
2022/08/12 10:32:25;;;;;;;4.70;2.13;;;;;;;31.99;22.20;101485.28;4890771;29;20132;-77
2022/08/12 10:35:13;;;;;;;8.90;2.35;;;;;;;31.87;22.45;101481.88;4888913;29;20409;-78
2022/08/12 10:37:43;;;;;;;4.65;1.90;;;;;;;31.68;22.44;101477.28;4900792;29;20139;-77
2022/08/12 10:40:30;;;;;;;3.05;1.95;;;;;;;32.04;22.69;101478.34;4886591;29;20033;-77
2022/08/12 10:45:47;;;;;;;5.18;1.92;;;;;;;32.18;23.11;101452.34;4911930;29;20656;-77
2022/08/12 10:48:15;;;;;;;2.67;1.90;;;;;;;32.64;23.51;101469.66;4885375;29;20112;-77
2022/08/12 10:50:54;;;;;;;2.80;1.80;;;;;;;31.67;22.95;101457.31;4901432;29;20048;-78
2022/08/12 10:53:35;;;;;;;2.00;1.80;;;;;;;32.18;23.27;101457.81;4919488;29;20040;-78
2022/08/12 10:56:15;;;;;;;2.38;1.80;;;;;;;31.96;23.17;101453.66;4918768;29;20040;-78
2022/08/12 10:58:43;;;;;;;4.65;2.05;;;;;;;31.63;23.15;101452.31;4886193;29;20995;-78
2022/08/12 11:01:15;;;;;;;9.60;2.60;;;;;;;32.17;22.89;101453.38;4885264;29;20040;-77
2022/08/12 11:04:04;;;;;;;2.15;1.83;;;;;;;32.56;22.63;101456.75;4902381;29;20111;-78
2022/08/12 11:06:52;;;;;;;2.47;1.83;;;;;;;32.46;22.09;101459.56;4893273;29;20067;-78
2022/08/12 11:09:40;;;;;;;2.30;1.50;;;;;;;32.71;22.22;101448.88;4904582;29;20043;-78
2022/08/12 11:12:30;;;;;;;3.50;2.00;;;;;;;32.40;22.67;101446.50;4909695;29;20104;-78
2022/08/12 11:15:19;;;;;;;2.85;1.73;;;;;;;32.43;22.72;101435.25;4869949;29;20120;-78
2022/08/12 11:18:06;;;;;;;1.88;1.60;;;;;;;32.77;22.46;101435.41;4892553;29;20149;-78
2022/08/12 11:20:38;;;;;;;5.18;1.70;;;;;;;32.90;22.39;101435.06;4902885;29;20040;-78
2022/08/12 11:23:04;;;;;;;3.15;2.08;;;;;;;32.74;22.84;101427.53;4904661;29;20072;-77
2022/08/12 11:25:51;;;;;;;2.78;1.85;;;;;;;31.05;23.88;101430.56;4918504;29;20048;-78
2022/08/12 11:28:24;;;;;;;3.42;1.90;;;;;;;31.77;23.30;101434.59;4886193;29;20051;-78
2022/08/12 11:31:02;;;;;;;1.88;1.60;;;;;;;31.99;23.22;101416.94;4900414;29;20033;-77
2022/08/12 11:33:29;;;;;;;2.50;2.15;;;;;;;32.38;23.62;101420.34;4901920;29;20505;-77
2022/08/12 11:36:16;;;;;;;4.60;2.17;;;;;;;32.44;22.66;101420.56;4898371;29;20411;-77
2022/08/12 11:38:47;;;;;;;2.20;1.70;;;;;;;32.47;22.92;101413.94;4869262;29;20789;-77
2022/08/12 11:41:20;;;;;;;2.47;1.90;;;;;;;32.57;23.67;101416.59;4898805;29;20038;-78
2022/08/12 11:44:01;;;;;;;4.43;2.10;;;;;;;31.85;23.09;101423.75;4892908;29;20043;-78
2022/08/12 11:46:49;;;;;;;3.17;1.92;;;;;;;32.08;22.36;101416.88;4894881;29;20059;-77
2022/08/12 11:49:18;;;;;;;2.20;2.00;;;;;;;32.18;23.83;101414.09;4878669;29;20861;-78
2022/08/12 11:52:01;;;;;;;2.78;2.20;;;;;;;31.35;23.74;101415.84;4860159;29;20044;-79
2022/08/12 11:54:29;;;;;;;2.80;1.90;;;;;;;31.77;23.71;101402.66;4908204;29;20241;-78
2022/08/12 11:57:00;;;;;;;2.78;1.90;;;;;;;32.24;23.91;101397.06;4868321;29;20048;-78
2022/08/12 11:59:30;;;;;;;3.30;2.08;;;;;;;31.83;23.48;101404.78;4892464;29;20087;-79
2022/08/12 12:02:17;;;;;;;2.67;2.22;;;;;;;31.73;23.42;101389.44;4876790;29;20383;-78
2022/08/12 12:04:48;;;;;;;2.03;1.85;;;;;;;31.48;24.05;101390.97;4915280;29;20051;-78
2022/08/12 12:07:21;;;;;;;3.00;2.13;;;;;;;32.00;22.99;101394.06;4861574;29;20221;-79
2022/08/12 12:10:10;;;;;;;5.80;1.95;;;;;;;32.33;22.86;101400.78;4884925;29;20040;-77
2022/08/12 12:12:36;;;;;;;2.70;1.92;;;;;;;31.89;23.07;101404.19;4875009;29;20135;-79
2022/08/12 12:15:07;;;;;;;3.85;1.80;;;;;;;31.40;23.63;101399.06;4895386;29;20040;-76
2022/08/12 12:17:36;;;;;;;3.42;1.88;;;;;;;31.80;23.53;101385.97;4873496;29;20048;-79
2022/08/12 12:20:09;;;;;;;2.72;1.73;;;;;;;32.11;23.47;101382.91;4913372;29;20126;-78
2022/08/12 12:22:42;;;;;;;4.38;2.10;;;;;;;31.59;23.36;101386.16;4884758;29;20136;-78
2022/08/12 12:25:13;;;;;;;3.28;2.10;;;;;;;31.80;23.35;101383.25;4899726;29;20036;-77
2022/08/12 12:27:52;;;;;;;2.17;1.63;;;;;;;32.02;23.87;101384.69;4892577;29;20123;-77
2022/08/12 12:30:32;;;;;;;3.55;2.20;;;;;;;31.74;23.15;101380.22;4898811;29;20054;-77
2022/08/12 12:32:59;;;;;;;5.75;2.08;;;;;;;31.69;23.50;101388.84;4898100;29;20046;-77
2022/08/12 12:35:26;;;;;;;3.47;1.80;;;;;;;31.98;22.96;101386.00;4907695;29;20043;-77
2022/08/12 12:38:14;;;;;;;2.30;2.03;;;;;;;32.51;23.08;101367.97;4915338;29;20497;-77
2022/08/12 12:40:44;;;;;;;3.28;2.00;;;;;;;32.66;22.65;101375.47;4880785;29;20036;-78
2022/08/12 12:43:12;;;;;;;2.85;1.80;;;;;;;32.28;23.07;101365.66;4883219;29;20517;-78
2022/08/12 12:45:40;;;;;;;3.47;1.80;;;;;;;32.38;22.73;101369.22;4883838;29;20040;-77
2022/08/12 12:48:19;;;;;;;3.47;1.80;;;;;;;31.74;23.54;101377.47;4896948;29;20458;-78
2022/08/12 12:53:45;;;;;;;2.50;1.83;;;;;;;31.94;23.71;101374.50;4888771;29;20090;-77
2022/08/12 12:56:31;;;;;;;3.75;2.03;;;;;;;31.96;23.21;101357.97;4901948;29;20040;-79
2022/08/12 12:59:02;;;;;;;2.63;1.85;;;;;;;31.84;23.99;101364.66;4896396;29;20084;-78
2022/08/12 13:01:29;;;;;;;2.65;2.25;;;;;;;32.04;23.15;101366.28;4891834;29;20051;-78
2022/08/12 13:04:09;;;;;;;2.95;1.90;;;;;;;31.57;23.99;101354.56;4892003;29;20044;-78
2022/08/12 13:06:40;;;;;;;3.42;2.22;;;;;;;31.82;23.62;101353.88;4889876;29;20040;-77
2022/08/12 13:09:11;;;;;;;3.92;1.85;;;;;;;32.03;23.71;101361.78;4896043;29;20040;-77
2022/08/12 13:11:39;;;;;;;2.75;1.83;;;;;;;32.37;23.58;101359.31;4895880;29;20112;-77
2022/08/12 13:14:12;;;;;;;2.55;2.05;;;;;;;32.40;23.01;101353.50;4898735;29;20071;-77
2022/08/12 13:17:02;;;;;;;2.65;1.92;;;;;;;32.20;23.24;101365.56;4890737;29;20047;-78
2022/08/12 13:19:35;;;;;;;2.78;2.10;;;;;;;32.14;23.22;101353.41;4914457;29;20043;-78
2022/08/12 13:22:16;;;;;;;4.45;2.15;;;;;;;31.38;23.97;101350.91;4868128;29;20414;-78
2022/08/12 13:24:49;;;;;;;10.35;3.10;;;;;;;31.49;23.70;101358.03;4880752;29;20075;-78
2022/08/12 13:27:28;;;;;;;4.47;2.30;;;;;;;31.94;23.63;101349.91;4890861;29;20052;-77
2022/08/12 13:30:08;;;;;;;2.83;2.30;;;;;;;31.97;23.51;101362.44;4881754;29;20040;-78
2022/08/12 13:32:39;;;;;;;6.88;2.72;;;;;;;32.21;23.60;101353.66;4874017;29;20075;-77
2022/08/12 13:35:07;;;;;;;4.72;2.10;;;;;;;32.34;23.45;101356.88;4896622;29;20054;-78
2022/08/12 13:37:55;;;;;;;2.92;2.10;;;;;;;32.20;23.17;101340.97;4886088;29;20041;-78
2022/08/12 13:40:24;;;;;;;3.35;2.53;;;;;;;32.25;23.71;101355.03;4913173;29;20048;-78
2022/08/12 13:42:56;;;;;;;2.20;2.00;;;;;;;32.32;23.98;101338.91;4883587;29;20049;-77
2022/08/12 13:45:24;;;;;;;3.35;1.95;;;;;;;32.47;23.70;101337.34;4890027;29;20083;-77
2022/08/12 13:48:01;;;;;;;3.45;1.80;;;;;;;32.52;23.80;101334.97;4901609;29;20107;-78
2022/08/12 13:50:37;;;;;;;4.85;2.05;;;;;;;32.62;23.18;101332.16;4915843;29;20036;-78